Main page
METAR-TAF:

METAR-TAF

Airports :

Santos Dumont Airport

Rio de Janeiro, Rio de Janeiro, Brazil

latitude: 22-54S, longitude: 043-10W, elevation: 3 m

Current weather observation

The report was made 28 minutes ago, at 14:00 UTC
Wind 5 kt from the North
Temperature 33°C
Humidity 56%
Pressure 1009 hPa
Visibility 10 km or more
no clouds below 1500 m and no cumulonimbus

METAR: SBRJ 141400Z 01005KT CAVOK 33/23 Q1009

Time: 12:28 (14:28 UTC)

Forecast

The report was made 6 hours and 28 minutes ago, at 08:00 UTC
Forecast valid from 14 at 12 UTC to 14 at 24 UTC
Wind 5 kt from the Northeast
Visibility 10 km or more
Few clouds at a height of 2500 ft
Becoming
from 14 at 14 UTC to 14 at 17 UTC
Wind 12 kt from the Southeast
Becoming
from 14 at 21 UTC to 14 at 23 UTC
Wind 7 kt from the East/Southeast
Visibility 10 km or more
no clouds below 1500 m and no cumulonimbus

TAF: SBRJ 140800Z 1412/1424 05005KT 9999 FEW025 TX36/1417Z TN25/1423Z BECMG 1414/1417 14012KT BECMG 1421/1423 11007KT CAVOK RMK PGX

Weather observations and forecasts of more than 4000 airports (METAR and TAF reports).

The available stations are represented by yellow and red dots on the map.

Hover mouse over dot to see the name of the station.

Then click to see weather observations and forecasts.

To change the map : click on the green buttons with a black cross to zoom in, on the green button with a dash to zoom out, or on the green arrows for adjacent maps.


METAR-TAF: